TimeCST,TemperatureF,Dew PointF,Humidity,Sea Level PressureIn,VisibilityMPH,Wind Direction,Wind SpeedMPH,Gust SpeedMPH,PrecipitationIn,Events,Conditions,WindDirDegrees,DateUTC
12:15 AM,53.6,37.8,55,30.14,10.0,NNE,4.6,-,N/A,,Clear,20,2013-11-19 06:15:00
12:35 AM,52.7,38.1,58,30.14,10.0,NNE,3.5,-,N/A,,Clear,20,2013-11-19 06:35:00
12:55 AM,52.3,38.3,59,30.14,10.0,NE,4.6,-,N/A,,Clear,40,2013-11-19 06:55:00
1:15 AM,52.0,38.8,61,30.13,10.0,NNE,5.8,-,N/A,,Clear,30,2013-11-19 07:15:00
1:35 AM,51.4,39.2,63,30.13,10.0,NNE,4.6,-,N/A,,Clear,20,2013-11-19 07:35:00
1:55 AM,51.4,39.4,63,30.13,10.0,NNE,5.8,-,N/A,,Clear,30,2013-11-19 07:55:00
2:15 AM,51.1,39.6,65,30.13,10.0,NNE,3.5,-,N/A,,Clear,30,2013-11-19 08:15:00
2:35 AM,50.5,39.7,66,30.13,10.0,Calm,Calm,-,N/A,,Clear,0,2013-11-19 08:35:00
2:55 AM,50.9,39.4,65,30.13,10.0,NNE,3.5,-,N/A,,Clear,20,2013-11-19 08:55:00
3:15 AM,50.9,39.6,65,30.14,10.0,NE,3.5,-,N/A,,Clear,40,2013-11-19 09:15:00
3:35 AM,50.5,39.4,66,30.13,10.0,NNE,5.8,-,N/A,,Clear,20,2013-11-19 09:35:00
3:55 AM,50.9,39.2,64,30.14,10.0,NNE,4.6,-,N/A,,Clear,20,2013-11-19 09:55:00
4:15 AM,49.8,39.6,68,30.14,10.0,Calm,Calm,-,N/A,,Clear,0,2013-11-19 10:15:00
4:35 AM,49.6,39.9,69,30.14,10.0,ENE,3.5,-,N/A,,Clear,60,2013-11-19 10:35:00
4:55 AM,50.0,39.6,67,30.13,10.0,NE,5.8,-,N/A,,Clear,50,2013-11-19 10:55:00
5:15 AM,50.4,39.6,66,30.13,10.0,NE,3.5,-,N/A,,Clear,50,2013-11-19 11:15:00
5:35 AM,50.7,39.4,65,30.14,10.0,NE,4.6,-,N/A,,Clear,40,2013-11-19 11:35:00
5:55 AM,50.7,39.0,64,30.15,10.0,NE,5.8,-,N/A,,Clear,40,2013-11-19 11:55:00
6:15 AM,50.0,38.7,65,30.14,10.0,NE,4.6,-,N/A,,Clear,50,2013-11-19 12:15:00
6:35 AM,50.0,38.3,64,30.15,10.0,NE,4.6,-,N/A,,Clear,40,2013-11-19 12:35:00
6:55 AM,50.0,38.7,65,30.16,10.0,Calm,Calm,-,N/A,,Clear,0,2013-11-19 12:55:00
7:15 AM,50.0,39.2,66,30.18,10.0,Calm,Calm,-,N/A,,Clear,0,2013-11-19 13:15:00
7:35 AM,50.9,39.9,66,30.18,10.0,NNE,5.8,-,N/A,,Clear,30,2013-11-19 13:35:00
7:55 AM,52.2,39.4,62,30.19,10.0,NE,5.8,-,N/A,,Clear,50,2013-11-19 13:55:00
8:15 AM,53.6,38.8,57,30.18,10.0,NE,9.2,-,N/A,,Clear,50,2013-11-19 14:15:00
8:35 AM,55.2,38.8,54,30.19,10.0,NE,5.8,-,N/A,,Clear,40,2013-11-19 14:35:00
8:55 AM,55.0,37.6,52,30.19,10.0,NE,9.2,-,N/A,,Clear,50,2013-11-19 14:55:00
9:15 AM,57.2,38.1,49,30.19,10.0,NE,10.4,-,N/A,,Clear,50,2013-11-19 15:15:00
9:35 AM,59.7,37.9,44,30.19,10.0,NE,11.5,19.6,N/A,,Clear,40,2013-11-19 15:35:00
9:55 AM,60.8,37.2,42,30.20,10.0,NE,9.2,-,N/A,,Clear,50,2013-11-19 15:55:00
10:15 AM,59.4,36.1,42,30.20,10.0,ENE,6.9,-,N/A,,Clear,70,2013-11-19 16:15:00
10:35 AM,60.6,36.3,40,30.20,10.0,NE,8.1,-,N/A,,Clear,40,2013-11-19 16:35:00
10:55 AM,61.7,35.4,38,30.19,10.0,ENE,8.1,-,N/A,,Clear,60,2013-11-19 16:55:00
11:15 AM,61.9,34.0,35,30.18,10.0,ENE,6.9,-,N/A,,Clear,60,2013-11-19 17:15:00
11:35 AM,63.0,32.4,32,30.16,10.0,ENE,6.9,-,N/A,,Clear,60,2013-11-19 17:35:00
11:55 AM,63.5,31.6,30,30.15,10.0,East,5.8,-,N/A,,Clear,90,2013-11-19 17:55:00
12:15 PM,64.8,32.0,29,30.14,10.0,East,5.8,-,N/A,,Clear,90,2013-11-19 18:15:00
12:35 PM,64.8,31.6,29,30.13,10.0,ENE,8.1,-,N/A,,Clear,60,2013-11-19 18:35:00
12:55 PM,63.9,29.8,28,30.13,10.0,ENE,5.8,-,N/A,,Clear,60,2013-11-19 18:55:00
1:15 PM,65.5,30.4,27,30.12,10.0,ENE,4.6,-,N/A,,Clear,70,2013-11-19 19:15:00
1:35 PM,66.0,32.5,29,30.10,10.0,North,6.9,-,N/A,,Clear,10,2013-11-19 19:35:00
1:55 PM,64.8,32.4,30,30.10,10.0,North,9.2,-,N/A,,Clear,360,2013-11-19 19:55:00
2:15 PM,65.5,32.2,29,30.09,10.0,North,8.1,-,N/A,,Clear,360,2013-11-19 20:15:00
2:35 PM,65.3,32.0,29,30.09,10.0,NNE,5.8,-,N/A,,Clear,30,2013-11-19 20:35:00
2:55 PM,65.1,31.6,29,30.08,10.0,ENE,6.9,-,N/A,,Clear,60,2013-11-19 20:55:00
3:15 PM,64.6,30.2,28,30.07,10.0,NE,6.9,-,N/A,,Clear,50,2013-11-19 21:15:00
3:35 PM,65.3,30.7,27,30.07,10.0,NNE,5.8,-,N/A,,Clear,20,2013-11-19 21:35:00
3:55 PM,64.0,30.4,28,30.07,10.0,Calm,Calm,-,N/A,,Clear,0,2013-11-19 21:55:00
4:15 PM,63.3,32.2,31,30.08,10.0,Calm,Calm,-,N/A,,Clear,0,2013-11-19 22:15:00
4:35 PM,61.3,34.7,37,30.08,10.0,Calm,Calm,-,N/A,,Clear,0,2013-11-19 22:35:00
4:55 PM,54.9,43.0,64,30.09,10.0,Calm,Calm,-,N/A,,Clear,0,2013-11-19 22:55:00
5:15 PM,51.6,44.8,77,30.10,10.0,Calm,Calm,-,N/A,,Clear,0,2013-11-19 23:15:00
5:35 PM,49.1,45.0,86,30.09,10.0,Calm,Calm,-,N/A,,Clear,0,2013-11-19 23:35:00
5:55 PM,47.1,43.2,86,30.09,10.0,Calm,Calm,-,N/A,,Clear,0,2013-11-19 23:55:00
6:15 PM,46.0,43.3,90,30.10,10.0,Calm,Calm,-,N/A,,Clear,0,2013-11-20 00:15:00
6:35 PM,44.8,42.4,91,30.10,10.0,Calm,Calm,-,N/A,,Clear,0,2013-11-20 00:35:00
6:55 PM,44.2,42.3,93,30.10,10.0,Calm,Calm,-,N/A,,Clear,0,2013-11-20 00:55:00
7:15 PM,43.5,41.0,91,30.11,10.0,Calm,Calm,-,N/A,,Clear,0,2013-11-20 01:15:00
7:35 PM,42.8,40.6,92,30.11,10.0,Calm,Calm,-,N/A,,Clear,0,2013-11-20 01:35:00
7:55 PM,41.9,39.6,91,30.11,10.0,Calm,Calm,-,N/A,,Clear,0,2013-11-20 01:55:00
8:15 PM,42.3,39.6,90,30.10,10.0,Calm,Calm,-,N/A,,Clear,0,2013-11-20 02:15:00
8:35 PM,41.9,39.4,91,30.10,10.0,Calm,Calm,-,N/A,,Clear,0,2013-11-20 02:35:00
8:55 PM,41.2,39.6,94,30.10,10.0,Calm,Calm,-,N/A,,Clear,0,2013-11-20 02:55:00
9:15 PM,41.0,38.8,92,30.10,10.0,Calm,Calm,-,N/A,,Clear,0,2013-11-20 03:15:00
9:35 PM,40.1,37.8,91,30.10,10.0,Calm,Calm,-,N/A,,Clear,0,2013-11-20 03:35:00
9:55 PM,39.6,37.9,94,30.10,10.0,Calm,Calm,-,N/A,,Clear,0,2013-11-20 03:55:00
10:15 PM,39.2,37.6,94,30.10,10.0,Calm,Calm,-,N/A,,Clear,0,2013-11-20 04:15:00
10:35 PM,39.2,37.4,93,30.10,10.0,Calm,Calm,-,N/A,,Clear,0,2013-11-20 04:35:00
10:55 PM,38.3,36.9,95,30.11,10.0,Calm,Calm,-,N/A,,Clear,0,2013-11-20 04:55:00
11:15 PM,37.9,36.5,95,30.10,10.0,Calm,Calm,-,N/A,,Clear,0,2013-11-20 05:15:00
11:35 PM,37.6,35.8,93,30.10,10.0,Calm,Calm,-,N/A,,Clear,0,2013-11-20 05:35:00
11:55 PM,37.4,35.8,94,30.10,10.0,Calm,Calm,-,N/A,,Clear,0,2013-11-20 05:55:00